JBU424 KLAX-KJFK
Flight info
| Callsign | JBU424 |
|---|---|
| Flight time | N/A |
| Altitude | 31000 |
| Route | DOTSS2 CLEEE PKE GUP KK45A/N0456F330 ROKNE BUM VHP KI63Q KLYNE Q29 WWSHR JHW Q476 WLKES PUCKY1 |
| Aircraft | A321/M-SDE3FGHIRWY/LB1 |
Departure
| Time | 2026-04-25 22:34 |
|---|---|
| Airport | Los Angeles International Airport (KLAX) |
Arrival
| Time | N/A |
|---|---|
| Airport | John F. Kennedy International Airport (KJFK) |
| Time | Latitude | Longitude | Altitude | Speed | Heading |
|---|---|---|---|---|---|
| 2026-04-25 22:09 | 33.94448 | -118.43025 | 126 ft | 0 kts | 82° |
| 2026-04-25 22:13 | 33.94446 | -118.43043 | 122 ft | 2 kts | 82° |
| 2026-04-25 22:13 | 33.94444 | -118.43064 | 123 ft | 2 kts | 71° |
| 2026-04-25 22:14 | 33.94437 | -118.43083 | 122 ft | 3 kts | 35° |
| 2026-04-25 22:14 | 33.94422 | -118.43091 | 121 ft | 2 kts | 7° |
| 2026-04-25 22:14 | 33.94417 | -118.43092 | 121 ft | 0 kts | 351° |
| 2026-04-25 22:21 | 33.94427 | -118.43094 | 121 ft | 11 kts | 351° |
| 2026-04-25 22:21 | 33.94533 | -118.43114 | 125 ft | 0 kts | 351° |
| 2026-04-25 22:22 | 33.94549 | -118.43117 | 125 ft | 5 kts | 351° |
| 2026-04-25 22:23 | 33.94571 | -118.43121 | 125 ft | 0 kts | 351° |
| 2026-04-25 22:23 | 33.94572 | -118.43121 | 121 ft | 1 kts | 351° |
| 2026-04-25 22:23 | 33.94579 | -118.43123 | 126 ft | 0 kts | 351° |
| 2026-04-25 22:24 | 33.94594 | -118.43113 | 123 ft | 5 kts | 58° |
| 2026-04-25 22:24 | 33.94609 | -118.43012 | 126 ft | 19 kts | 86° |
| 2026-04-25 22:25 | 33.94622 | -118.42871 | 126 ft | 16 kts | 83° |
| 2026-04-25 22:25 | 33.94624 | -118.42795 | 123 ft | 4 kts | 104° |
| 2026-04-25 22:25 | 33.94570 | -118.42766 | 125 ft | 15 kts | 167° |
| 2026-04-25 22:25 | 33.94424 | -118.42743 | 124 ft | 27 kts | 175° |
| 2026-04-25 22:26 | 33.94220 | -118.42717 | 123 ft | 31 kts | 172° |
| 2026-04-25 22:26 | 33.93999 | -118.42680 | 122 ft | 33 kts | 173° |
| 2026-04-25 22:26 | 33.93773 | -118.42649 | 124 ft | 24 kts | 172° |
| 2026-04-25 22:26 | 33.93706 | -118.42638 | 125 ft | 2 kts | 172° |
| 2026-04-25 22:27 | 33.93677 | -118.42633 | 124 ft | 6 kts | 172° |
| 2026-04-25 22:27 | 33.93628 | -118.42602 | 124 ft | 10 kts | 132° |
| 2026-04-25 22:27 | 33.93623 | -118.42522 | 124 ft | 12 kts | 85° |
| 2026-04-25 22:27 | 33.93632 | -118.42409 | 126 ft | 16 kts | 84° |
| 2026-04-25 22:28 | 33.93645 | -118.42263 | 125 ft | 19 kts | 81° |
| 2026-04-25 22:28 | 33.93668 | -118.42086 | 123 ft | 23 kts | 81° |
| 2026-04-25 22:28 | 33.93690 | -118.41876 | 126 ft | 27 kts | 84° |
| 2026-04-25 22:28 | 33.93713 | -118.41636 | 123 ft | 31 kts | 83° |
| 2026-04-25 22:29 | 33.93740 | -118.41367 | 123 ft | 34 kts | 83° |
| 2026-04-25 22:29 | 33.93769 | -118.41070 | 126 ft | 37 kts | 84° |
| 2026-04-25 22:29 | 33.93800 | -118.40745 | 123 ft | 40 kts | 83° |
| 2026-04-25 22:30 | 33.93863 | -118.40157 | 126 ft | 45 kts | 83° |
| 2026-04-25 22:30 | 33.93902 | -118.39776 | 126 ft | 47 kts | 83° |
| 2026-04-25 22:30 | 33.93931 | -118.39487 | 126 ft | 0 kts | 82° |
| 2026-04-25 22:30 | 33.93932 | -118.39481 | 126 ft | 3 kts | 82° |
| 2026-04-25 22:31 | 33.93940 | -118.39411 | 124 ft | 12 kts | 82° |
| 2026-04-25 22:31 | 33.93958 | -118.39237 | 126 ft | 18 kts | 82° |
| 2026-04-25 22:31 | 33.93971 | -118.39126 | 124 ft | 21 kts | 83° |
| 2026-04-25 22:31 | 33.93988 | -118.38934 | 126 ft | 25 kts | 84° |
| 2026-04-25 22:32 | 33.94012 | -118.38711 | 121 ft | 29 kts | 82° |
| 2026-04-25 22:32 | 33.94038 | -118.38461 | 122 ft | 32 kts | 83° |
| 2026-04-25 22:32 | 33.94062 | -118.38213 | 126 ft | 5 kts | 80° |
| 2026-04-25 22:32 | 33.94063 | -118.38204 | 126 ft | 5 kts | 80° |
| 2026-04-25 22:33 | 33.94077 | -118.38094 | 126 ft | 15 kts | 84° |
| 2026-04-25 22:33 | 33.94019 | -118.38011 | 124 ft | 14 kts | 182° |
| 2026-04-25 22:33 | 33.93978 | -118.38084 | 125 ft | 0 kts | 259° |
| 2026-04-25 22:33 | 33.93977 | -118.38089 | 124 ft | 6 kts | 259° |
| 2026-04-25 22:34 | 33.93908 | -118.38661 | 124 ft | 131 kts | 263° |
| 2026-04-25 22:34 | 33.93781 | -118.40112 | 319 ft | 204 kts | 261° |
| 2026-04-25 22:34 | 33.93621 | -118.41914 | 977 ft | 210 kts | 265° |
| 2026-04-25 22:34 | 33.93665 | -118.43595 | 1326 ft | 197 kts | 272° |
| 2026-04-25 22:35 | 33.93731 | -118.45250 | 1696 ft | 198 kts | 269° |
| 2026-04-25 22:35 | 33.93426 | -118.46891 | 2089 ft | 216 kts | 239° |
| 2026-04-25 22:35 | 33.92287 | -118.48097 | 2480 ft | 226 kts | 209° |
| 2026-04-25 22:35 | 33.90796 | -118.48888 | 2877 ft | 244 kts | 204° |
| 2026-04-25 22:36 | 33.89191 | -118.49670 | 3261 ft | 251 kts | 203° |
| 2026-04-25 22:36 | 33.87555 | -118.50444 | 3628 ft | 253 kts | 202° |
| 2026-04-25 22:36 | 33.85908 | -118.51219 | 4011 ft | 256 kts | 202° |
| 2026-04-25 22:36 | 33.84256 | -118.51999 | 4388 ft | 259 kts | 203° |
| 2026-04-25 22:37 | 33.82521 | -118.52614 | 4781 ft | 262 kts | 193° |
| 2026-04-25 22:37 | 33.80730 | -118.53055 | 5146 ft | 264 kts | 193° |
| 2026-04-25 22:37 | 33.78927 | -118.53510 | 5533 ft | 265 kts | 194° |
| 2026-04-25 22:37 | 33.77086 | -118.53808 | 5906 ft | 269 kts | 182° |
| 2026-04-25 22:38 | 33.75210 | -118.53525 | 6003 ft | 275 kts | 168° |
| 2026-04-25 22:38 | 33.73355 | -118.52937 | 5995 ft | 274 kts | 167° |
| 2026-04-25 22:38 | 33.71556 | -118.52154 | 5996 ft | 278 kts | 153° |
| 2026-04-25 22:38 | 33.70022 | -118.50720 | 6035 ft | 285 kts | 133° |
| 2026-04-25 22:39 | 33.68927 | -118.48656 | 6905 ft | 296 kts | 113° |
| 2026-04-25 22:39 | 33.68228 | -118.46361 | 8327 ft | 292 kts | 112° |
| 2026-04-25 22:39 | 33.67518 | -118.44064 | 9688 ft | 296 kts | 113° |
| 2026-04-25 22:39 | 33.66778 | -118.41702 | 10748 ft | 313 kts | 114° |
| 2026-04-25 22:40 | 33.65972 | -118.39151 | 11493 ft | 339 kts | 116° |
| 2026-04-25 22:40 | 33.65110 | -118.36401 | 12183 ft | 366 kts | 114° |
| 2026-04-25 22:40 | 33.64534 | -118.33340 | 13129 ft | 386 kts | 102° |
| 2026-04-25 22:40 | 33.64425 | -118.30049 | 14086 ft | 402 kts | 95° |
| 2026-04-25 22:41 | 33.64438 | -118.26668 | 15032 ft | 408 kts | 94° |
| 2026-04-25 22:41 | 33.64736 | -118.23229 | 15918 ft | 421 kts | 82° |
| 2026-04-25 22:41 | 33.65618 | -118.19838 | 16635 ft | 431 kts | 70° |
| 2026-04-25 22:41 | 33.67068 | -118.16674 | 16889 ft | 436 kts | 56° |
| 2026-04-25 22:42 | 33.69063 | -118.13927 | 16968 ft | 437 kts | 42° |
| 2026-04-25 22:42 | 33.71426 | -118.11712 | 17007 ft | 437 kts | 35° |
| 2026-04-25 22:42 | 33.73878 | -118.09554 | 17001 ft | 436 kts | 35° |
| 2026-04-25 22:42 | 33.76316 | -118.07387 | 16975 ft | 436 kts | 35° |
| 2026-04-25 22:43 | 33.78747 | -118.05206 | 16976 ft | 434 kts | 36° |
| 2026-04-25 22:43 | 33.81159 | -118.03031 | 16978 ft | 433 kts | 36° |
| 2026-04-25 22:43 | 33.83570 | -118.00854 | 16995 ft | 433 kts | 36° |
| 2026-04-25 22:43 | 33.85982 | -117.98678 | 17002 ft | 433 kts | 36° |
| 2026-04-25 22:44 | 33.88401 | -117.96498 | 17005 ft | 433 kts | 36° |
| 2026-04-25 22:44 | 33.90814 | -117.94323 | 17000 ft | 433 kts | 36° |
| 2026-04-25 22:44 | 33.93221 | -117.92142 | 17071 ft | 437 kts | 36° |
| 2026-04-25 22:44 | 33.95665 | -117.89911 | 17999 ft | 441 kts | 36° |
| 2026-04-25 22:45 | 33.98120 | -117.87664 | 18988 ft | 445 kts | 36° |
| 2026-04-25 22:45 | 34.00606 | -117.85386 | 19826 ft | 452 kts | 36° |
| 2026-04-25 22:45 | 34.03128 | -117.83076 | 20649 ft | 459 kts | 36° |
| 2026-04-25 22:45 | 34.05686 | -117.80728 | 21421 ft | 466 kts | 36° |
| 2026-04-25 22:46 | 34.08240 | -117.78271 | 22163 ft | 473 kts | 41° |
| 2026-04-25 22:46 | 34.10539 | -117.75394 | 22879 ft | 480 kts | 50° |
| 2026-04-25 22:46 | 34.12662 | -117.72238 | 23558 ft | 487 kts | 51° |
| 2026-04-25 22:46 | 34.14809 | -117.69046 | 24156 ft | 493 kts | 51° |
| 2026-04-25 22:47 | 34.16980 | -117.65824 | 24775 ft | 497 kts | 51° |
| 2026-04-25 22:47 | 34.19176 | -117.62571 | 25421 ft | 502 kts | 51° |
| 2026-04-25 22:47 | 34.21367 | -117.59321 | 26038 ft | 507 kts | 51° |
| 2026-04-25 22:47 | 34.23604 | -117.55997 | 26663 ft | 511 kts | 51° |
| 2026-04-25 22:48 | 34.25852 | -117.52646 | 27234 ft | 515 kts | 51° |
| 2026-04-25 22:48 | 34.28118 | -117.49262 | 27734 ft | 520 kts | 51° |
| 2026-04-25 22:48 | 34.30406 | -117.45843 | 28251 ft | 525 kts | 51° |
| 2026-04-25 22:48 | 34.32710 | -117.42404 | 28875 ft | 528 kts | 51° |
| 2026-04-25 22:49 | 34.35042 | -117.38925 | 29474 ft | 533 kts | 51° |
| 2026-04-25 22:49 | 34.37383 | -117.35426 | 30018 ft | 537 kts | 51° |
| 2026-04-25 22:49 | 34.39709 | -117.31883 | 30590 ft | 537 kts | 55° |
| 2026-04-25 22:49 | 34.41530 | -117.28023 | 31140 ft | 534 kts | 70° |
| 2026-04-25 22:50 | 34.42582 | -117.23752 | 31696 ft | 526 kts | 85° |
| 2026-04-25 22:50 | 34.42791 | -117.19379 | 32276 ft | 515 kts | 100° |
| 2026-04-25 22:50 | 34.42334 | -117.15096 | 32827 ft | 510 kts | 105° |
| 2026-04-25 22:50 | 34.41804 | -117.10847 | 33351 ft | 511 kts | 105° |
| 2026-04-25 22:51 | 34.41282 | -117.06577 | 33799 ft | 511 kts | 105° |